Time;durP1;ratioP1;P1;durP2;ratioP2;P2;SDS_P1;SDS_P2;PMS_P1;PMS_P2;Temp;Humidity;BMP_temperature;BMP_pressure;BME280_temperature;BME280_humidity;BME280_pressure;Samples;Min_cycle;Max_cycle;Signal;HPM_P1;HPM_P2
2021/12/14 00:00:48;;;;;;;;;48.00;42.00;;;;;21.49;47.64;101959.95;109239;1280;19943;-73
2021/12/14 00:03:14;;;;;;;;;43.00;39.67;;;;;21.49;47.63;101952.27;109277;1279;20301;-73
2021/12/14 00:05:40;;;;;;;;;47.33;38.00;;;;;21.49;47.55;101954.91;109239;1279;19031;-71
2021/12/14 00:08:06;;;;;;;;;40.00;37.00;;;;;21.48;47.60;101951.30;109247;1279;20258;-73
2021/12/14 00:13:19;;;;;;;;;49.33;40.00;;;;;21.48;47.44;101951.18;109233;1280;20692;-73
2021/12/14 00:15:45;;;;;;;;;47.00;39.00;;;;;21.48;47.50;101951.73;109270;1280;19427;-73
2021/12/14 00:18:13;;;;;;;;;51.00;39.50;;;;;21.48;47.42;101947.33;109169;1275;133131;-73
2021/12/14 00:20:39;;;;;;;;;48.00;40.00;;;;;21.48;47.58;101950.04;109266;1279;20055;-73
2021/12/14 00:25:49;;;;;;;;;49.00;41.50;;;;;21.49;47.30;101941.48;109294;1279;18783;-72
2021/12/14 00:28:15;;;;;;;;;56.33;43.67;;;;;21.49;47.38;101945.44;109262;1279;22929;-73
2021/12/14 00:30:41;;;;;;;;;44.00;39.50;;;;;21.49;47.49;101938.71;109265;1279;22464;-73
2021/12/14 00:33:07;;;;;;;;;52.50;41.00;;;;;21.47;47.50;101935.62;109287;1279;19167;-73
2021/12/14 00:35:33;;;;;;;;;46.00;38.00;;;;;21.49;47.26;101942.53;109229;1280;22468;-73
2021/12/14 00:37:59;;;;;;;;;47.67;40.00;;;;;21.48;47.35;101944.74;109238;1279;19441;-73
2021/12/14 00:40:25;;;;;;;;;48.50;38.00;;;;;21.49;47.33;101946.73;109249;1279;22814;-73
2021/12/14 00:42:51;;;;;;;;;45.50;40.00;;;;;21.44;47.30;101940.23;109266;1279;22447;-73
2021/12/14 00:45:17;;;;;;;;;44.50;38.00;;;;;21.48;47.23;101942.05;109239;1280;23247;-73
2021/12/14 00:47:43;;;;;;;;;49.00;44.00;;;;;21.48;47.33;101939.54;109258;1279;22310;-72
2021/12/14 00:50:09;;;;;;;;;48.00;41.00;;;;;21.47;47.14;101937.98;109255;1279;22414;-72
2021/12/14 00:52:35;;;;;;;;;56.00;42.00;;;;;21.47;47.18;101938.01;109091;1279;23071;-73
2021/12/14 00:55:01;;;;;;;;;56.00;42.50;;;;;21.48;47.24;101936.96;109070;1280;22294;-73
2021/12/14 00:57:27;;;;;;;;;45.67;40.67;;;;;21.47;47.16;101934.12;109084;1280;18994;-73
2021/12/14 00:59:53;;;;;;;;;42.50;37.50;;;;;21.47;47.08;101932.52;109113;1280;20867;-73
2021/12/14 01:02:19;;;;;;;;;46.00;40.00;;;;;21.46;47.20;101929.56;109059;1279;19249;-73
2021/12/14 01:04:45;;;;;;;;;48.00;42.00;;;;;21.45;47.09;101930.85;109097;1280;19280;-73
2021/12/14 01:07:11;;;;;;;;;53.00;44.00;;;;;21.46;47.23;101934.55;109230;1280;21776;-73
2021/12/14 01:09:37;;;;;;;;;55.00;42.50;;;;;21.46;47.20;101933.35;109284;1279;18777;-72
2021/12/14 01:12:07;;;;;;;;;51.33;41.67;;;;;21.46;47.03;101936.65;109241;1281;20405;-73
2021/12/14 01:14:39;;;;;;;;;45.67;40.67;;;;;21.46;47.19;101938.46;109265;1279;19716;-73
2021/12/14 01:17:11;;;;;;;;;43.67;39.33;;;;;21.44;47.07;101932.08;109281;1280;20503;-73
2021/12/14 01:19:37;;;;;;;;;48.00;40.00;;;;;21.43;47.10;101926.17;109286;1280;21019;-73
2021/12/14 01:25:01;;;;;;;;;50.00;39.33;;;;;21.45;47.01;101916.39;109127;1279;19619;-73
2021/12/14 01:27:29;;;;;;;;;50.33;41.00;;;;;21.44;47.03;101919.12;109276;1279;19017;-73
2021/12/14 01:29:56;;;;;;;;;44.00;40.00;;;;;21.45;47.08;101931.30;109263;1280;22194;-73
2021/12/14 01:32:25;;;;;;;;;48.33;43.33;;;;;21.45;47.05;101930.92;109243;1280;22476;-73
2021/12/14 01:34:51;;;;;;;;;52.67;42.33;;;;;21.45;47.09;101928.87;109266;1279;18927;-73
2021/12/14 01:37:19;;;;;;;;;48.00;40.00;;;;;21.45;47.06;101924.58;109302;1280;19520;-73
2021/12/14 01:39:48;;;;;;;;;52.00;41.67;;;;;21.45;47.09;101928.95;109239;1281;18885;-72
2021/12/14 01:42:14;;;;;;;;;49.67;44.00;;;;;21.45;47.14;101927.84;109285;1280;18881;-73
2021/12/14 01:44:40;;;;;;;;;48.00;40.67;;;;;21.44;46.96;101934.05;109207;1279;19747;-73
2021/12/14 01:47:06;;;;;;;;;45.50;41.00;;;;;21.44;47.11;101934.27;109192;1278;19359;-73
2021/12/14 01:49:32;;;;;;;;;46.00;40.00;;;;;21.44;47.06;101933.95;109219;1280;19680;-73
2021/12/14 01:51:58;;;;;;;;;52.00;44.00;;;;;21.44;46.82;101939.50;109251;1279;19884;-72
2021/12/14 01:54:24;;;;;;;;;49.50;41.50;;;;;21.44;47.10;101937.53;109269;1280;18657;-73
2021/12/14 01:56:50;;;;;;;;;51.50;38.00;;;;;21.44;47.09;101929.58;109286;1279;18710;-73
2021/12/14 01:59:16;;;;;;;;;55.33;41.33;;;;;21.44;46.85;101924.98;109239;1280;19848;-73
2021/12/14 02:01:53;;;;;;;;;46.50;40.00;;;;;21.43;46.93;101920.71;109263;1280;18608;-72
2021/12/14 02:04:19;;;;;;;;;45.67;40.00;;;;;21.43;46.97;101919.27;109246;1279;23110;-73
2021/12/14 02:06:45;;;;;;;;;52.00;42.00;;;;;21.42;46.96;101915.56;109240;1279;19463;-73
2021/12/14 02:09:11;;;;;;;;;48.67;41.33;;;;;21.41;46.98;101914.90;109293;1280;19207;-73
2021/12/14 02:11:37;;;;;;;;;57.50;42.00;;;;;21.42;46.95;101917.02;109272;1279;19219;-73
2021/12/14 02:14:03;;;;;;;;;52.00;44.00;;;;;21.41;47.00;101910.60;109241;1279;19670;-73
2021/12/14 02:16:29;;;;;;;;;46.67;41.00;;;;;21.42;47.06;101912.73;109271;1279;19075;-73
2021/12/14 02:18:55;;;;;;;;;48.50;39.00;;;;;21.41;47.04;101912.38;109265;1279;18661;-73
2021/12/14 02:21:21;;;;;;;;;49.00;39.33;;;;;21.41;47.07;101909.99;109291;1280;19627;-73
2021/12/14 02:23:47;;;;;;;;;44.50;41.50;;;;;21.41;46.94;101911.83;109288;1280;18894;-72
2021/12/14 02:26:13;;;;;;;;;49.00;43.00;;;;;21.41;46.86;101908.73;108555;1278;63101;-85
2021/12/14 02:29:15;;;;;;;;;47.67;38.67;;;;;21.42;46.96;101909.55;108958;1280;19633;-85
2021/12/14 02:31:42;;;;;;;;;44.33;39.00;;;;;21.44;46.92;101909.23;108911;1280;19008;-85
2021/12/14 02:34:08;;;;;;;;;53.00;43.50;;;;;21.43;46.90;101912.77;108840;1279;23455;-85
2021/12/14 02:36:52;;;;;;;;;46.67;41.67;;;;;21.43;46.79;101905.07;108930;1279;19582;-85
2021/12/14 02:39:25;;;;;;;;;50.33;41.00;;;;;21.43;46.68;101903.80;108966;1279;18913;-85
2021/12/14 02:41:57;;;;;;;;;53.00;40.00;;;;;21.43;46.81;101904.18;108883;1280;19145;-86
2021/12/14 02:44:38;;;;;;;;;51.67;42.33;;;;;21.42;46.95;101899.02;108930;1280;19866;-85
2021/12/14 02:47:05;;;;;;;;;47.67;40.00;;;;;21.41;46.77;101897.64;108929;1280;18777;-85
2021/12/14 02:49:35;;;;;;;;;57.67;41.00;;;;;21.41;46.82;101896.59;108855;1280;19195;-85
2021/12/14 02:52:02;;;;;;;;;46.33;39.67;;;;;21.42;46.80;101892.07;108907;1280;19863;-87
2021/12/14 02:54:29;;;;;;;;;52.50;42.00;;;;;21.42;46.75;101893.70;108976;1279;18903;-86
2021/12/14 02:56:56;;;;;;;;;47.67;40.67;;;;;21.41;46.80;101891.62;108875;1279;19441;-86
2021/12/14 02:59:24;;;;;;;;;52.67;41.33;;;;;21.41;46.77;101891.09;108928;1279;19651;-86
2021/12/14 03:01:51;;;;;;;;;54.67;44.00;;;;;21.41;46.70;101892.96;108953;1280;18882;-86
2021/12/14 03:04:18;;;;;;;;;47.00;41.50;;;;;21.41;46.72;101883.90;108913;1280;18937;-86
2021/12/14 03:06:49;;;;;;;;;48.67;41.33;;;;;21.40;46.81;101881.00;108923;1279;20247;-86
2021/12/14 03:09:33;;;;;;;;;46.00;40.33;;;;;21.39;46.89;101880.91;108909;1280;19469;-85
2021/12/14 03:12:03;;;;;;;;;55.67;42.67;;;;;21.41;46.71;101879.44;108932;1280;18859;-86
2021/12/14 03:14:32;;;;;;;;;46.33;40.00;;;;;21.41;46.61;101878.23;108868;1279;19725;-85
2021/12/14 03:16:58;;;;;;;;;52.33;42.00;;;;;21.41;46.84;101873.91;108913;1280;18580;-85
2021/12/14 03:19:25;;;;;;;;;42.00;40.00;;;;;21.38;46.77;101872.68;108958;1280;19761;-86
2021/12/14 03:21:52;;;;;;;;;51.00;40.00;;;;;21.40;46.85;101876.29;108900;1280;19562;-86
2021/12/14 03:24:24;;;;;;;;;51.67;42.00;;;;;21.41;46.75;101880.23;108903;1279;19613;-85
2021/12/14 03:26:52;;;;;;;;;44.00;40.00;;;;;21.41;46.72;101876.22;108944;1280;18653;-86
2021/12/14 03:29:20;;;;;;;;;50.67;41.67;;;;;21.41;46.62;101876.95;108958;1280;19830;-86
2021/12/14 03:31:53;;;;;;;;;46.67;41.67;;;;;21.37;46.56;101870.00;108913;1280;22506;-86
2021/12/14 03:34:22;;;;;;;;;51.33;42.33;;;;;21.40;46.62;101870.52;108938;1280;18921;-86
2021/12/14 03:36:49;;;;;;;;;54.00;42.00;;;;;21.39;46.75;101868.27;108931;1280;20022;-86
2021/12/14 03:39:23;;;;;;;;;52.33;40.00;;;;;21.41;46.51;101866.61;108946;1279;19705;-86
2021/12/14 03:41:49;;;;;;;;;48.67;39.33;;;;;21.41;46.48;101867.10;108966;1280;18652;-86
2021/12/14 03:44:16;;;;;;;;;45.50;40.50;;;;;21.40;46.70;101861.39;108863;1280;19588;-86
2021/12/14 03:46:43;;;;;;;;;53.33;41.33;;;;;21.41;46.46;101862.08;108897;1280;18930;-86
2021/12/14 03:49:10;;;;;;;;;51.33;42.00;;;;;21.41;46.53;101862.18;109002;1280;18939;-86
2021/12/14 03:51:44;;;;;;;;;44.50;40.00;;;;;21.41;46.50;101856.52;108950;1279;19674;-86
2021/12/14 03:54:11;;;;;;;;;51.67;42.67;;;;;21.40;46.68;101853.06;108890;1281;19398;-86
2021/12/14 03:56:58;;;;;;;;;55.50;43.00;;;;;21.41;46.64;101854.39;108972;1280;18938;-86
2021/12/14 03:59:33;;;;;;;;;54.33;43.00;;;;;21.40;46.62;101847.21;109041;1280;20088;-85
2021/12/14 04:01:59;;;;;;;;;54.67;44.67;;;;;21.40;46.60;101848.15;109262;1279;18579;-86
2021/12/14 04:04:34;;;;;;;;;45.33;40.00;;;;;21.40;46.50;101849.73;108915;1280;19153;-86
2021/12/14 04:07:00;;;;;;;;;53.67;44.00;;;;;21.40;46.65;101845.63;108889;1279;22336;-86
2021/12/14 04:09:28;;;;;;;;;50.00;42.33;;;;;21.41;46.50;101843.73;108886;1280;21596;-86
2021/12/14 04:11:56;;;;;;;;;52.67;42.33;;;;;21.40;46.56;101841.20;108932;1279;19351;-86
2021/12/14 04:14:29;;;;;;;;;52.33;43.33;;;;;21.41;46.45;101836.98;108921;1280;21315;-85
2021/12/14 04:16:55;;;;;;;;;50.33;41.67;;;;;21.40;46.54;101832.30;108927;1279;19184;-85
2021/12/14 04:19:27;;;;;;;;;50.00;42.33;;;;;21.40;46.58;101834.85;108900;1279;19688;-86
2021/12/14 04:21:54;;;;;;;;;47.67;40.00;;;;;21.40;46.58;101832.36;109028;1279;23105;-86
2021/12/14 04:24:20;;;;;;;;;46.33;41.00;;;;;21.39;46.64;101830.41;108904;1280;19198;-87
2021/12/14 04:26:48;;;;;;;;;56.33;42.00;;;;;21.39;46.58;101828.63;108934;1280;19085;-86
2021/12/14 04:29:15;;;;;;;;;54.00;43.00;;;;;21.39;46.43;101835.15;108899;1280;19617;-86
2021/12/14 04:31:42;;;;;;;;;52.67;42.33;;;;;21.40;46.48;101835.23;108903;1279;18821;-86
2021/12/14 04:34:11;;;;;;;;;55.00;43.50;;;;;21.39;46.48;101839.67;108945;1279;20481;-87
2021/12/14 04:36:40;;;;;;;;;45.67;42.00;;;;;21.39;46.49;101834.75;108927;1280;19646;-87
2021/12/14 04:39:29;;;;;;;;;44.00;38.00;;;;;21.40;46.37;101834.33;108920;1280;18848;-86
2021/12/14 04:52:55;;;;;;;;;53.67;43.33;;;;;21.38;46.48;101815.95;108486;1284;19570;-86
2021/12/14 04:55:23;;;;;;;;;49.67;41.00;;;;;21.38;46.30;101816.33;108452;1285;19339;-87
2021/12/14 04:57:49;;;;;;;;;56.67;44.67;;;;;21.39;46.25;101812.65;108438;1285;22574;-87
2021/12/14 05:00:15;;;;;;;;;50.00;41.50;;;;;21.38;46.29;101813.98;108484;1284;19365;-87
2021/12/14 05:02:43;;;;;;;;;49.33;41.33;;;;;21.38;46.27;101817.22;108522;1284;19438;-88
2021/12/14 05:05:09;;;;;;;;;49.50;43.00;;;;;21.39;46.30;101819.91;109028;1284;18815;-88
2021/12/14 05:07:59;;;;;;;;;49.33;40.67;;;;;21.39;46.28;101822.63;108598;1285;19615;-88
2021/12/14 05:10:25;;;;;;;;;61.33;46.33;;;;;21.39;46.32;101826.19;108518;1284;18903;-87
2021/12/14 05:12:52;;;;;;;;;51.00;40.00;;;;;21.39;46.44;101829.09;108415;1285;19226;-88
2021/12/14 05:15:19;;;;;;;;;52.00;40.67;;;;;21.40;46.38;101831.18;108468;1284;19476;-88
2021/12/14 05:18:00;;;;;;;;;54.00;43.33;;;;;21.39;46.38;101827.45;108525;1285;19562;-88
2021/12/14 05:20:34;;;;;;;;;45.33;40.00;;;;;21.39;46.27;101823.08;108448;1285;22934;-87
2021/12/14 05:23:05;;;;;;;;;57.67;43.33;;;;;21.40;46.40;101820.70;108822;1280;19814;-87
2021/12/14 05:25:52;;;;;;;;;54.33;41.67;;;;;21.38;46.39;101814.48;108936;1280;18904;-87
2021/12/14 05:28:22;;;;;;;;;47.33;42.00;;;;;21.38;46.42;101811.92;108895;1279;18858;-87
2021/12/14 05:30:47;;;;;;;;;50.00;42.00;;;;;21.38;46.24;101811.05;108904;1279;23089;-87
2021/12/14 05:33:15;;;;;;;;;54.67;44.00;;;;;21.40;46.27;101812.89;108952;1280;18811;-87
2021/12/14 05:35:46;;;;;;;;;49.67;42.33;;;;;21.38;46.25;101809.77;108881;1280;23010;-87
2021/12/14 05:38:12;;;;;;;;;51.67;42.00;;;;;21.38;46.25;101804.16;108897;1279;19680;-86
2021/12/14 05:40:56;;;;;;;;;50.67;41.00;;;;;21.35;46.44;101791.16;108883;1280;19459;-87
2021/12/14 05:43:25;;;;;;;;;52.67;42.00;;;;;21.37;46.43;101788.56;108862;1280;18880;-87
2021/12/14 05:45:55;;;;;;;;;50.67;43.00;;;;;21.36;46.35;101783.30;108923;1280;20209;-87
2021/12/14 05:48:21;;;;;;;;;53.00;43.00;;;;;21.36;46.38;101790.67;109048;1280;19301;-88
2021/12/14 05:50:50;;;;;;;;;54.67;44.00;;;;;21.37;46.70;101791.84;109072;1280;22934;-88
2021/12/14 05:53:17;;;;;;;;;49.33;39.33;;;;;21.46;46.56;101784.42;108981;1280;19808;-87
2021/12/14 05:55:43;;;;;;;;;51.00;40.00;;;;;21.53;46.60;101785.52;108988;1280;18845;-86
2021/12/14 05:58:09;;;;;;;;;55.00;44.00;;;;;21.52;46.58;101779.81;108991;1280;19375;-87
2021/12/14 06:00:38;;;;;;;;;52.00;42.50;;;;;21.51;46.98;101777.20;108994;1280;19658;-87
2021/12/14 06:03:04;;;;;;;;;52.00;40.33;;;;;21.50;47.07;101775.46;108950;1280;20515;-87
2021/12/14 06:05:32;;;;;;;;;50.00;41.33;;;;;21.48;47.17;101773.30;109072;1279;19155;-87
2021/12/14 06:07:59;;;;;;;;;51.00;38.50;;;;;21.47;47.29;101775.06;108950;1279;21645;-87
2021/12/14 06:10:26;;;;;;;;;49.33;42.67;;;;;21.47;47.20;101771.63;108867;1280;18863;-85
2021/12/14 06:12:52;;;;;;;;;54.00;41.50;;;;;21.47;47.26;101768.86;108874;1279;19095;-85
2021/12/14 06:15:26;;;;;;;;;51.33;41.67;;;;;21.48;47.14;101766.92;108974;1280;19659;-85
2021/12/14 06:17:56;;;;;;;;;49.33;42.00;;;;;21.46;47.29;101765.50;108945;1279;18915;-85
2021/12/14 06:20:30;;;;;;;;;51.00;40.00;;;;;21.46;47.36;101766.82;108870;1279;19173;-85
2021/12/14 06:23:00;;;;;;;;;53.33;42.00;;;;;21.45;47.29;101766.48;108962;1280;19578;-85
2021/12/14 06:25:27;;;;;;;;;49.33;42.00;;;;;21.45;47.18;101768.76;108813;1280;18829;-85
2021/12/14 06:28:09;;;;;;;;;44.33;40.00;;;;;21.44;47.13;101774.95;108971;1279;19057;-84
2021/12/14 06:30:41;;;;;;;;;48.33;40.67;;;;;21.45;47.27;101779.26;109093;1280;19524;-84
2021/12/14 06:33:07;;;;;;;;;55.33;42.00;;;;;21.45;47.04;101782.52;108939;1279;21101;-83
2021/12/14 06:35:36;;;;;;;;;41.00;36.67;;;;;21.45;47.31;101784.88;108930;1280;18925;-83
2021/12/14 06:40:49;;;;;;;;;54.50;43.00;;;;;21.48;47.05;101778.89;108945;1280;20045;-83
2021/12/14 06:43:16;;;;;;;;;55.00;41.67;;;;;21.48;47.04;101778.35;108936;1279;19008;-84
2021/12/14 06:45:46;;;;;;;;;50.00;40.00;;;;;21.49;47.04;101781.77;108914;1279;19592;-83
2021/12/14 06:48:15;;;;;;;;;48.00;42.00;;;;;21.48;47.26;101775.83;109133;1280;19681;-84
2021/12/14 06:50:43;;;;;;;;;43.33;40.00;;;;;21.49;47.50;101768.64;108967;1279;19220;-83
2021/12/14 06:53:09;;;;;;;;;44.67;38.00;;;;;21.53;47.62;101764.00;108985;1279;19563;-83
2021/12/14 06:55:39;;;;;;;;;50.00;42.00;;;;;21.57;47.51;101760.52;108842;1279;18816;-86
2021/12/14 06:58:10;;;;;;;;;49.50;40.00;;;;;21.57;47.63;101760.52;108927;1280;18883;-86
2021/12/14 07:00:37;;;;;;;;;41.33;37.00;;;;;21.58;47.86;101757.01;108978;1280;19599;-85
2021/12/14 07:03:03;;;;;;;;;44.67;39.33;;;;;21.60;47.95;101757.83;108908;1280;19156;-85
2021/12/14 07:05:30;;;;;;;;;40.00;34.00;;;;;21.61;48.01;101765.05;109041;1280;19067;-86
2021/12/14 07:07:58;;;;;;;;;41.67;38.33;;;;;21.61;47.99;101767.24;108962;1280;19587;-86
2021/12/14 07:10:26;;;;;;;;;43.50;40.50;;;;;21.60;47.99;101769.66;109026;1280;19475;-84
2021/12/14 07:12:53;;;;;;;;;42.00;36.00;;;;;21.62;48.21;101768.44;108929;1280;19109;-84
2021/12/14 07:15:23;;;;;;;;;46.67;39.33;;;;;21.63;48.25;101769.63;108978;1279;19614;-83
2021/12/14 07:17:53;;;;;;;;;42.33;37.00;;;;;21.63;48.34;101772.86;108989;1280;18771;-83
2021/12/14 07:20:21;;;;;;;;;40.67;35.33;;;;;21.63;48.59;101777.54;108949;1280;19020;-84
2021/12/14 07:22:47;;;;;;;;;42.50;35.00;;;;;21.63;48.68;101779.25;108939;1280;21663;-83
2021/12/14 07:25:13;;;;;;;;;46.00;36.00;;;;;21.63;48.89;101782.52;108915;1280;18669;-85
2021/12/14 07:27:44;;;;;;;;;39.50;33.00;;;;;21.62;49.03;101774.57;108912;1280;19435;-84
2021/12/14 07:30:11;;;;;;;;;38.00;34.50;;;;;21.65;49.11;101776.85;108953;1280;19628;-84
2021/12/14 07:32:45;;;;;;;;;38.00;32.00;;;;;21.64;49.09;101783.45;108950;1280;18814;-85
2021/12/14 07:35:14;;;;;;;;;41.33;33.00;;;;;21.63;49.29;101783.38;108942;1280;19331;-84
2021/12/14 07:37:44;;;;;;;;;41.67;37.00;;;;;21.62;49.16;101782.24;108956;1279;20189;-85
2021/12/14 07:40:10;;;;;;;;;41.67;36.00;;;;;21.64;49.44;101791.84;108917;1279;18971;-84
2021/12/14 07:42:40;;;;;;;;;42.33;35.00;;;;;21.64;49.39;101789.02;108962;1280;19125;-85
2021/12/14 07:45:06;;;;;;;;;36.33;30.67;;;;;21.61;49.34;101787.59;108913;1280;20097;-84
2021/12/14 07:47:34;;;;;;;;;39.33;35.33;;;;;21.56;49.71;101790.08;108903;1279;19232;-85
2021/12/14 07:50:07;;;;;;;;;37.00;33.00;;;;;21.58;49.62;101788.60;108950;1279;18939;-86
2021/12/14 07:52:35;;;;;;;;;38.67;34.00;;;;;21.62;49.39;101783.10;108993;1280;19828;-86
2021/12/14 07:55:03;;;;;;;;;37.00;33.00;;;;;21.66;49.48;101780.07;109083;1280;19032;-85
2021/12/14 07:57:38;;;;;;;;;37.33;33.00;;;;;21.69;49.66;101788.41;109019;1280;19360;-84
2021/12/14 08:00:12;;;;;;;;;40.67;33.67;;;;;21.71;49.91;101792.05;109235;1280;19614;-86
2021/12/14 08:02:40;;;;;;;;;42.00;34.00;;;;;21.73;49.68;101788.73;109144;1280;18794;-86
2021/12/14 08:05:08;;;;;;;;;54.00;44.00;;;;;21.76;49.07;101791.16;109012;1280;19348;-88
2021/12/14 08:07:35;;;;;;;;;48.67;41.33;;;;;21.78;49.35;101792.27;108990;1279;19510;-87
2021/12/14 08:10:06;;;;;;;;;65.00;53.00;;;;;21.78;49.03;101786.38;108990;1278;19029;-86
2021/12/14 08:12:36;;;;;;;;;93.00;68.67;;;;;21.77;48.81;101784.80;109118;1280;19576;-85
2021/12/14 08:15:05;;;;;;;;;126.67;100.00;;;;;21.79;49.17;101792.11;109049;1280;19576;-87
2021/12/14 08:17:39;;;;;;;;;149.67;106.67;;;;;21.78;49.39;101788.08;108871;1268;137089;-85
2021/12/14 08:20:05;;;;;;;;;132.00;109.00;;;;;21.79;49.31;101788.52;108984;1279;19160;-85
2021/12/14 08:22:36;;;;;;;;;125.67;93.67;;;;;21.80;49.18;101790.89;109133;1280;20763;-86
2021/12/14 08:25:02;;;;;;;;;103.67;81.33;;;;;21.79;49.33;101787.88;109086;1279;19537;-87
2021/12/14 08:27:31;;;;;;;;;103.33;78.67;;;;;21.79;49.25;101783.17;109068;1280;19019;-84
2021/12/14 08:29:57;;;;;;;;;101.33;73.00;;;;;21.80;49.36;101781.24;108933;1280;20411;-85
2021/12/14 08:32:24;;;;;;;;;101.33;77.67;;;;;21.81;49.58;101784.05;108837;1279;20090;-84
2021/12/14 08:34:50;;;;;;;;;95.67;67.00;;;;;21.83;49.60;101781.27;108939;1279;19127;-85
2021/12/14 08:37:19;;;;;;;;;99.00;72.00;;;;;21.87;49.42;101779.23;108989;1280;19647;-85
2021/12/14 08:39:45;;;;;;;;;96.50;68.00;;;;;21.86;49.55;101775.92;108995;1280;18594;-84
2021/12/14 08:42:13;;;;;;;;;95.33;70.00;;;;;21.86;49.38;101777.87;108919;1280;18972;-83
2021/12/14 08:44:40;;;;;;;;;89.67;66.00;;;;;21.85;49.36;101777.63;108982;1279;19686;-85
2021/12/14 08:47:10;;;;;;;;;92.00;63.33;;;;;21.81;49.54;101777.11;109015;1279;20719;-84
2021/12/14 08:49:45;;;;;;;;;89.67;65.00;;;;;21.79;49.75;101777.58;109033;1280;18939;-82
2021/12/14 08:52:11;;;;;;;;;86.50;59.50;;;;;21.78;49.84;101774.77;108949;1279;19783;-84
2021/12/14 08:54:42;;;;;;;;;84.67;62.00;;;;;21.77;49.74;101772.27;108954;1280;22198;-84
2021/12/14 08:57:09;;;;;;;;;77.00;59.00;;;;;21.79;49.59;101767.41;108916;1279;18989;-84
2021/12/14 08:59:35;;;;;;;;;80.00;58.00;;;;;21.79;49.73;101770.28;108927;1280;19493;-86
2021/12/14 09:02:04;;;;;;;;;75.67;54.67;;;;;21.79;49.69;101763.21;108895;1281;18870;-83
2021/12/14 09:04:32;;;;;;;;;69.00;53.33;;;;;21.78;49.57;101766.18;108783;1281;19439;-85
2021/12/14 09:07:08;;;;;;;;;73.33;51.33;;;;;21.77;49.49;101768.13;109163;1281;21142;-85
2021/12/14 09:09:40;;;;;;;;;75.00;56.50;;;;;21.76;49.74;101767.88;109321;1280;19426;-85
2021/12/14 09:12:10;;;;;;;;;68.33;52.67;;;;;21.76;49.86;101765.64;109398;1279;18923;-84
2021/12/14 09:14:36;;;;;;;;;72.67;53.67;;;;;21.79;49.67;101767.14;109253;1280;19333;-85
2021/12/14 09:17:04;;;;;;;;;68.33;55.00;;;;;21.81;49.50;101762.81;109044;1280;19460;-84
2021/12/14 09:19:33;;;;;;;;;69.67;50.33;;;;;21.81;49.59;101766.08;109072;1281;19201;-86
2021/12/14 09:22:00;;;;;;;;;64.00;50.00;;;;;21.81;49.65;101772.06;109040;1279;19984;-86
2021/12/14 09:24:26;;;;;;;;;62.00;49.00;;;;;21.80;49.53;101772.53;108993;1279;18773;-84
2021/12/14 09:26:52;;;;;;;;;58.33;46.33;;;;;21.80;49.57;101779.49;108971;1280;21443;-83
2021/12/14 09:29:19;;;;;;;;;58.00;43.33;;;;;21.79;49.75;101781.37;109011;1280;19454;-85
2021/12/14 09:31:49;;;;;;;;;59.33;46.00;;;;;21.79;49.81;101779.55;108969;1279;18827;-86
2021/12/14 09:34:17;;;;;;;;;62.33;45.00;;;;;21.80;49.75;101772.49;109039;1279;19043;-86
2021/12/14 09:36:44;;;;;;;;;55.33;43.00;;;;;21.80;49.85;101768.13;109031;1279;19616;-85
2021/12/14 09:39:14;;;;;;;;;53.67;42.33;;;;;21.82;50.26;101769.76;108974;1279;18744;-85
2021/12/14 09:41:41;;;;;;;;;54.67;42.00;;;;;21.86;50.46;101773.19;109013;1279;19198;-86
2021/12/14 09:44:09;;;;;;;;;56.00;43.00;;;;;21.84;50.27;101768.96;108905;1280;19908;-87
2021/12/14 09:46:35;;;;;;;;;51.00;41.67;;;;;21.87;50.20;101767.30;109023;1279;19177;-85
2021/12/14 09:49:03;;;;;;;;;56.67;42.00;;;;;21.85;50.18;101766.34;108968;1278;19032;-86
2021/12/14 09:51:35;;;;;;;;;46.67;37.67;;;;;21.86;50.09;101769.37;108991;1280;21519;-84
2021/12/14 09:54:02;;;;;;;;;58.67;43.00;;;;;21.86;50.21;101769.34;108976;1279;19091;-86
2021/12/14 09:56:29;;;;;;;;;54.00;43.33;;;;;21.87;50.18;101766.00;109009;1279;19385;-86
2021/12/14 09:58:59;;;;;;;;;50.00;41.00;;;;;21.85;50.31;101760.91;109170;1279;19666;-87
2021/12/14 10:01:29;;;;;;;;;57.67;45.00;;;;;21.79;50.06;101755.00;109372;1280;19108;-87
2021/12/14 10:03:58;;;;;;;;;56.67;42.67;;;;;21.53;48.87;101753.55;109002;1280;18975;-85
2021/12/14 10:06:27;;;;;;;;;50.67;41.33;;;;;21.49;48.98;101749.91;109050;1279;21366;-84
2021/12/14 10:08:58;;;;;;;;;46.00;39.50;;;;;21.59;49.03;101747.10;108994;1280;18800;-85
2021/12/14 10:11:34;;;;;;;;;51.50;42.00;;;;;21.68;49.14;101748.52;109091;1280;19141;-84
2021/12/14 10:14:03;;;;;;;;;48.00;39.50;;;;;21.74;48.97;101746.02;109082;1279;20437;-85
2021/12/14 10:16:31;;;;;;;;;45.67;38.33;;;;;21.76;49.32;101737.98;109033;1279;19131;-85
2021/12/14 10:18:57;;;;;;;;;49.50;43.50;;;;;21.75;49.37;101733.37;109313;1280;18877;-85
2021/12/14 10:21:29;;;;;;;;;44.33;37.00;;;;;21.75;49.27;101733.72;109151;1280;21056;-84
2021/12/14 10:23:55;;;;;;;;;47.00;36.00;;;;;21.76;49.14;101730.73;109058;1279;18770;-85
2021/12/14 10:26:41;;;;;;;;;48.33;40.00;;;;;21.76;49.17;101720.17;109039;1279;19016;-85
2021/12/14 10:29:16;;;;;;;;;42.67;39.33;;;;;21.77;49.24;101719.13;109129;1280;20724;-85
2021/12/14 10:31:44;;;;;;;;;45.67;40.00;;;;;21.76;49.36;101721.27;109040;1279;18867;-84
2021/12/14 10:34:13;;;;;;;;;38.00;35.00;;;;;21.77;49.16;101722.23;109112;1279;18912;-85
2021/12/14 10:36:43;;;;;;;;;43.00;38.00;;;;;21.82;49.42;101718.68;109057;1280;19696;-85
2021/12/14 10:39:25;;;;;;;;;44.67;39.00;;;;;21.82;50.05;101716.67;108944;1279;19403;-84
2021/12/14 10:44:37;;;;;;;;;43.00;37.00;;;;;21.90;49.87;101707.79;108987;1279;22195;-86
2021/12/14 10:47:12;;;;;;;;;45.00;38.50;;;;;21.90;50.35;101707.48;109013;1279;18853;-85
2021/12/14 10:49:43;;;;;;;;;42.67;37.67;;;;;21.89;50.24;101710.17;108991;1279;19288;-86
2021/12/14 10:52:14;;;;;;;;;41.67;36.67;;;;;21.89;50.21;101710.14;109387;1280;20027;-85
2021/12/14 10:54:40;;;;;;;;;36.33;34.33;;;;;21.88;50.36;101703.33;109190;1280;18814;-85
2021/12/14 10:57:07;;;;;;;;;42.00;34.00;;;;;21.87;50.79;101702.48;109172;1280;21884;-85
2021/12/14 10:59:50;;;;;;;;;44.67;33.67;;;;;21.86;51.05;101698.20;109064;1279;19688;-84
2021/12/14 11:02:21;;;;;;;;;40.00;36.33;;;;;21.86;51.09;101697.83;109066;1279;22999;-85
2021/12/14 11:04:54;;;;;;;;;38.00;32.50;;;;;21.87;50.88;101697.55;109520;1279;18929;-87
2021/12/14 11:07:23;;;;;;;;;42.50;34.50;;;;;21.87;51.14;101700.98;109025;1280;19985;-85
2021/12/14 11:09:55;;;;;;;;;47.00;38.00;;;;;21.86;51.31;101710.17;108909;1279;19130;-86
2021/12/14 11:12:23;;;;;;;;;35.67;32.67;;;;;21.84;51.05;101706.77;108946;1280;18872;-84
2021/12/14 11:14:53;;;;;;;;;38.33;31.33;;;;;21.84;51.09;101689.73;108982;1280;19865;-83
2021/12/14 11:20:04;;;;;;;;;39.00;31.00;;;;;21.82;51.26;101690.96;109028;1280;18874;-83
2021/12/14 11:22:30;;;;;;;;;89.00;68.67;;;;;21.84;51.05;101671.73;109092;1279;19762;-84
2021/12/14 11:24:57;;;;;;;;;106.00;84.75;;;;;21.85;51.01;101671.05;109148;1280;19221;-84
2021/12/14 11:27:26;;;;;;;;;198.00;167.00;;;;;21.85;50.60;101665.72;109022;1279;18935;-84
2021/12/14 11:29:56;;;;;;;;;230.75;200.00;;;;;21.84;50.33;101677.69;109033;1280;20136;-83
2021/12/14 11:32:26;;;;;;;;;165.75;144.50;;;;;21.83;50.46;101673.28;109108;1279;19308;-83
2021/12/14 11:34:54;;;;;;;;;205.00;170.67;;;;;21.85;50.14;101663.98;109028;1279;19241;-83
2021/12/14 11:37:33;;;;;;;;;178.00;153.00;;;;;21.88;50.50;101661.84;108957;1280;22661;-83